Tateville, KY

12:50 PM EDT on June 30, 2015 (GMT -0400)
KYTC_RWIS | | Change Station
CLOSE
Current Station
Personal Weather Station
Location: Bronston, KY
Elevation: 870 ft
Nearby Weather Stations

Elev 870 ft 37.00 °N, 84.61 °W | Updated 35 minutes ago

Mostly Cloudy
Mostly Cloudy
78 °F
Feels Like 80 °F
N
2
Wind Variable Wind from SE
Gusts 0.0 mph

Today
High -- | Low -- °F
--% Chance of Precip.
Yesterday
High -- | Low -- °F
Precip. -- in
6:21 AM 9:01 PM
Waxing Gibbous, 98% visible
Pressure 29.96 in
Visibility 10.0 miles
Clouds Mostly Cloudy 1900 ft
Mostly Cloudy 2500 ft
Overcast 7000 ft
Heat Index 80 °F
Dew Point 71 °F
Humidity 79%
Rainfall in
Snow Depth Not available.
UV 3 out of 12
Pollen 3.90 out of 12
Air Quality Not available.
Flu Activity No Activity
METAR KSME 301635Z AUTO 26006KT 10SM BKN019 BKN025 OVC070 25/20 A2996 RMK AO2

More Conditions Fewer Conditions

Pressure 29.96 in
Visibility 10.0 miles
Clouds Mostly Cloudy 1900 ft
Mostly Cloudy 2500 ft
Overcast 7000 ft
Heat Index 80 °F
Dew Point 71 °F
Humidity 79%
Rainfall in
Snow Depth Not available.
UV 3 out of 12
Pollen 3.90 out of 12
Air Quality Not available.
Flu Activity No Activity
METAR KSME 301635Z AUTO 26006KT 10SM BKN019 BKN025 OVC070 25/20 A2996 RMK AO2

More Conditions Fewer Conditions

10-Day Weather Forecast

Almanac

Astronomy

Jun. 30, 2015 Rise Set
Actual Time
Civil Twilight
Nautical Twilight
Astronomical Twilight
Moon
Length of Visible Light
Length of Day
Tomorrow will be .
, % of the Moon is Illuminated

Today's Extremes

State Highs State Lows

Community

WunderPhotos

Upload Photos

1,834,038 photos uploaded!

WunderBlogs® & News

Nearby

Air Quality

  Air Quality AQ Index Pollutant
Not available.

Snow Depth

Station Depth Elevation

Earthquake Activity

City Distance Mag. Time & Date
Minimum magnitude displayed is 2.5.

Coastal Water Temperatures

Place Temperature

Stations

Nearby Weather Stations

Station Location Temp. Windchill Dew Point Humidity Wind Precip. Elev Updated Type